Fairview, Oklahoma
Current Conditions -  °F | °C
As of 11:15 AM on Sunday 23 Nov 2014 (Local Time) from KJWG Reporting Station
Broken Clouds Broken Clouds  
Wind Chill: 57°   Ceiling: 2000
Heat Index: 57°   Visibility: 10mi
Dew Point: 50°   Wind: 9mph
Humidity: 76%   Direction: 290°WNW
Pressure: 29.41"   Gusts: NA
Location:  36.27°N, 98.48°W
Report Text: KJWG 231715Z AUTO 29008KT 10SM BKN020 14/10 A2941 RMK AO2 T01400098
Loading
Personal Weather Stations






























Interactive Weather Map New forecast layout! Learn more

10-Day Weather Forecast

Advertisements
Track Severe Weather on mobile